Time;durP1;ratioP1;P1;durP2;ratioP2;P2;SDS_P1;SDS_P2;PMS_P1;PMS_P2;Temp;Humidity;BMP_temperature;BMP_pressure;BME280_temperature;BME280_humidity;BME280_pressure;Samples;Min_cycle;Max_cycle;Signal;HPM_P1;HPM_P2
2021/12/07 00:01:37;;;;;;;11.60;2.95;;;8.50;99.90;;;;;;5028056;28;20392;-75
2021/12/07 00:04:04;;;;;;;15.00;3.60;;;8.40;99.90;;;;;;5027979;28;20030;-75
2021/12/07 00:06:30;;;;;;;11.90;3.00;;;8.30;99.90;;;;;;5028120;28;20029;-75
2021/12/07 00:08:57;;;;;;;15.98;3.22;;;8.40;99.90;;;;;;5009929;28;20564;-75
2021/12/07 00:11:29;;;;;;;17.40;3.35;;;8.30;99.90;;;;;;5010783;28;20060;-75
2021/12/07 00:13:57;;;;;;;17.42;3.97;;;8.40;99.90;;;;;;5028851;28;20025;-75
2021/12/07 00:16:24;;;;;;;19.50;4.60;;;8.50;99.90;;;;;;5027504;28;20103;-73
2021/12/07 00:18:50;;;;;;;18.20;4.88;;;8.50;99.90;;;;;;5028190;28;20026;-74
2021/12/07 00:21:17;;;;;;;19.10;4.43;;;8.50;99.90;;;;;;5009780;28;20400;-74
2021/12/07 00:23:45;;;;;;;14.73;4.53;;;8.50;99.90;;;;;;5027767;28;20025;-74
2021/12/07 00:26:12;;;;;;;21.05;3.95;;;8.60;99.90;;;;;;5011662;28;20041;-74
2021/12/07 00:28:39;;;;;;;18.42;5.38;;;8.60;99.90;;;;;;5027808;28;20052;-74
2021/12/07 00:31:40;;;;;;;17.25;3.83;;;8.60;99.90;;;;;;5027988;28;20033;-74
2021/12/07 00:34:10;;;;;;;17.10;4.25;;;8.60;99.90;;;;;;5025442;28;20498;-74
2021/12/07 00:36:39;;;;;;;19.83;4.28;;;8.70;99.90;;;;;;5027597;28;20037;-74
2021/12/07 00:39:06;;;;;;;23.88;4.68;;;8.70;99.90;;;;;;5027783;28;20108;-74
2021/12/07 00:41:32;;;;;;;17.15;2.97;;;8.70;99.90;;;;;;5027480;28;20026;-74
2021/12/07 00:43:58;;;;;;;21.90;4.57;;;8.70;99.90;;;;;;5029114;28;20100;-74
2021/12/07 00:46:26;;;;;;;13.35;2.72;;;8.70;99.90;;;;;;5027442;28;20103;-74
2021/12/07 00:48:52;;;;;;;15.23;3.90;;;8.70;99.90;;;;;;5027242;28;20029;-74
2021/12/07 00:51:17;;;;;;;16.67;4.07;;;8.70;99.90;;;;;;5027552;28;20075;-74
2021/12/07 00:53:43;;;;;;;12.95;4.50;;;8.70;99.90;;;;;;5027596;28;20041;-74
2021/12/07 00:56:09;;;;;;;20.92;4.28;;;8.70;99.90;;;;;;5029500;28;20044;-74
2021/12/07 00:58:35;;;;;;;15.82;4.45;;;8.70;99.90;;;;;;5028127;28;20032;-74
2021/12/07 01:01:07;;;;;;;14.60;4.90;;;8.70;99.90;;;;;;5028201;28;20562;-74
2021/12/07 01:03:34;;;;;;;16.00;4.32;;;8.70;99.90;;;;;;5027460;28;20032;-74
2021/12/07 01:06:23;;;;;;;18.73;4.82;;;8.70;99.90;;;;;;5028050;28;20057;-74
2021/12/07 01:09:05;;;;;;;20.90;6.32;;;8.70;99.90;;;;;;5010511;28;20040;-74
2021/12/07 01:25:23;;;;;;;22.95;5.63;;;8.50;99.90;;;;;;5026854;28;20052;-74
2021/12/07 01:27:51;;;;;;;26.80;6.45;;;8.50;99.90;;;;;;5027640;28;20029;-74
2021/12/07 01:30:21;;;;;;;20.38;5.47;;;8.40;99.90;;;;;;5027769;28;20022;-74
2021/12/07 01:59:38;;;;;;;12.73;3.95;;;8.00;99.90;;;;;;4985498;28;20408;-74
2021/12/07 02:02:15;;;;;;;19.98;4.28;;;8.00;99.90;;;;;;4987214;28;20042;-74
2021/12/07 02:04:40;;;;;;;15.07;4.28;;;8.00;99.90;;;;;;4985048;28;20047;-74
2021/12/07 02:07:07;;;;;;;14.02;3.80;;;7.90;99.90;;;;;;4985354;28;20053;-73
2021/12/07 02:09:37;;;;;;;14.70;3.75;;;7.90;99.90;;;;;;4985328;28;20023;-73
2021/12/07 02:12:06;;;;;;;18.73;3.50;;;7.80;99.90;;;;;;4985253;28;20038;-74
2021/12/07 02:14:32;;;;;;;14.45;2.90;;;7.90;99.90;;;;;;4984964;28;20039;-74
2021/12/07 02:17:21;;;;;;;15.57;2.90;;;7.80;99.90;;;;;;4986988;28;20121;-74
2021/12/07 02:19:47;;;;;;;12.27;3.15;;;7.70;99.90;;;;;;4986355;28;20062;-74
2021/12/07 02:22:13;;;;;;;10.77;2.65;;;7.70;99.90;;;;;;4968866;28;20073;-74
2021/12/07 02:24:39;;;;;;;11.75;2.88;;;7.80;99.90;;;;;;4985029;28;22881;-74
2021/12/07 02:27:06;;;;;;;13.07;3.00;;;7.80;99.90;;;;;;4985519;28;20047;-74
2021/12/07 02:29:32;;;;;;;18.08;4.47;;;7.70;99.90;;;;;;4985024;28;20118;-75
2021/12/07 02:31:59;;;;;;;14.65;3.05;;;7.70;99.90;;;;;;4986834;28;20117;-74
2021/12/07 02:34:25;;;;;;;7.28;2.15;;;7.70;99.90;;;;;;5018204;28;20049;-74
2021/12/07 02:36:53;;;;;;;7.40;2.67;;;7.60;99.90;;;;;;5029042;28;20037;-74
2021/12/07 02:39:30;;;;;;;7.88;2.08;;;7.60;99.90;;;;;;5030927;28;20206;-74
2021/12/07 02:41:55;;;;;;;7.85;2.22;;;7.70;99.90;;;;;;5031185;28;20091;-74
2021/12/07 02:44:21;;;;;;;13.20;2.83;;;7.70;99.90;;;;;;5030944;28;20543;-74
2021/12/07 02:46:47;;;;;;;6.65;2.17;;;7.70;99.90;;;;;;5031972;28;20042;-74
2021/12/07 02:49:12;;;;;;;13.55;3.25;;;7.70;99.90;;;;;;5030903;28;20029;-74
2021/12/07 02:51:38;;;;;;;14.35;2.80;;;7.80;99.90;;;;;;5030645;28;20061;-74
2021/12/07 02:54:04;;;;;;;11.93;2.70;;;7.80;99.90;;;;;;5030731;28;20013;-74
2021/12/07 02:56:30;;;;;;;9.27;2.90;;;7.80;99.90;;;;;;5013373;28;20049;-74
2021/12/07 02:59:00;;;;;;;13.07;2.58;;;7.80;99.90;;;;;;5014043;28;20025;-74
2021/12/07 03:01:31;;;;;;;9.23;2.70;;;7.70;99.90;;;;;;5030547;28;20025;-75
2021/12/07 03:04:08;;;;;;;14.93;2.90;;;7.60;99.90;;;;;;5030928;28;20029;-74
2021/12/07 03:07:13;;;;;;;8.95;2.35;;;7.50;99.90;;;;;;5012769;28;20048;-74
2021/12/07 03:28:19;;;;;;;4.68;1.58;;;7.30;99.90;;;;;;5030030;28;20060;-74
2021/12/07 03:30:45;;;;;;;6.13;2.15;;;7.30;99.90;;;;;;5012270;28;20482;-74
2021/12/07 03:33:11;;;;;;;8.23;1.83;;;7.30;99.90;;;;;;5030298;28;20041;-74
2021/12/07 03:35:37;;;;;;;10.23;2.22;;;7.10;99.90;;;;;;5029973;28;20064;-74
2021/12/07 03:38:05;;;;;;;19.30;3.33;;;7.10;99.90;;;;;;5031447;28;20036;-74
2021/12/07 03:40:31;;;;;;;4.35;1.05;;;7.10;99.90;;;;;;5029862;28;20026;-74
2021/12/07 03:42:58;;;;;;;7.32;1.58;;;7.00;99.90;;;;;;5029527;28;20037;-74
2021/12/07 03:45:25;;;;;;;4.28;1.25;;;6.90;99.90;;;;;;5029357;28;20045;-74
2021/12/07 03:47:56;;;;;;;6.32;1.63;;;7.00;99.90;;;;;;5028905;28;20144;-74
2021/12/07 03:50:22;;;;;;;5.45;1.20;;;7.00;99.90;;;;;;5030925;28;20052;-74
2021/12/07 03:52:50;;;;;;;2.88;1.00;;;7.00;99.90;;;;;;5030719;28;20416;-74
2021/12/07 03:55:16;;;;;;;3.75;1.10;;;7.00;99.90;;;;;;5028967;28;20041;-74
2021/12/07 03:57:41;;;;;;;1.83;0.73;;;6.90;99.90;;;;;;5011824;28;20033;-74
2021/12/07 04:00:10;;;;;;;4.78;1.20;;;6.80;99.90;;;;;;5029370;28;20095;-74
2021/12/07 04:02:40;;;;;;;2.20;1.05;;;6.60;99.90;;;;;;5011565;28;20041;-74
2021/12/07 04:05:15;;;;;;;4.55;1.60;;;6.70;99.90;;;;;;5031078;28;20025;-74
2021/12/07 04:07:42;;;;;;;2.45;1.38;;;6.70;99.90;;;;;;5029263;28;20029;-74
2021/12/07 04:10:11;;;;;;;5.55;1.38;;;6.70;99.90;;;;;;5011493;28;20022;-74
2021/12/07 04:12:37;;;;;;;4.47;0.88;;;6.70;99.90;;;;;;5029363;28;20025;-74
2021/12/07 04:15:05;;;;;;;2.60;0.80;;;6.40;99.90;;;;;;5029224;28;20029;-74
2021/12/07 04:17:30;;;;;;;7.13;1.45;;;6.30;99.90;;;;;;5029782;28;20025;-74
2021/12/07 04:19:56;;;;;;;2.72;1.08;;;6.30;99.90;;;;;;5012682;28;20032;-74
2021/12/07 04:22:22;;;;;;;3.78;1.95;;;6.30;99.90;;;;;;5029025;28;20057;-74
2021/12/07 04:24:48;;;;;;;4.70;1.30;;;6.20;99.90;;;;;;5028457;28;20033;-74
2021/12/07 04:27:14;;;;;;;2.17;0.95;;;6.10;99.90;;;;;;5029037;28;20025;-74
2021/12/07 04:29:40;;;;;;;2.92;0.93;;;6.10;99.90;;;;;;5028789;28;20033;-73
2021/12/07 04:32:06;;;;;;;4.70;1.15;;;6.20;99.90;;;;;;5030222;28;20032;-74
2021/12/07 04:34:31;;;;;;;4.47;1.20;;;6.30;99.90;;;;;;5010588;28;20029;-73
2021/12/07 04:36:57;;;;;;;3.08;0.95;;;6.30;99.90;;;;;;5028452;28;20475;-74
2021/12/07 04:39:23;;;;;;;1.65;0.82;;;6.30;99.90;;;;;;5028132;28;20025;-74
2021/12/07 04:41:50;;;;;;;3.90;1.38;;;6.20;99.90;;;;;;5028978;28;20024;-73
2021/12/07 04:44:16;;;;;;;5.25;1.50;;;6.30;99.90;;;;;;5029940;28;20076;-74
2021/12/07 04:46:55;;;;;;;3.05;1.30;;;6.10;99.90;;;;;;5028878;28;20072;-74
2021/12/07 05:00:09;;;;;;;5.35;1.52;;;5.70;99.90;;;;;;5015005;28;20419;-74
2021/12/07 05:02:37;;;;;;;1.33;0.90;;;5.70;99.90;;;;;;5028797;28;20017;-74
2021/12/07 05:05:04;;;;;;;3.20;0.82;;;5.70;99.90;;;;;;5030267;28;20022;-74
2021/12/07 05:07:37;;;;;;;1.88;0.90;;;5.60;99.90;;;;;;5028060;28;20029;-74
2021/12/07 05:12:52;;;;;;;2.53;1.55;;;5.60;99.90;;;;;;5027924;28;20064;-74
2021/12/07 05:15:30;;;;;;;2.35;0.80;;;5.60;99.90;;;;;;5027809;28;20029;-74
2021/12/07 05:39:36;;;;;;;5.28;2.00;;;5.40;99.90;;;;;;4985306;28;20599;-73
2021/12/07 05:42:02;;;;;;;4.13;1.30;;;5.40;99.90;;;;;;4986061;28;20030;-74
2021/12/07 05:44:28;;;;;;;8.98;1.85;;;5.40;99.90;;;;;;4985924;28;20042;-74
2021/12/07 05:46:53;;;;;;;3.17;2.10;;;5.40;99.90;;;;;;4986843;28;20399;-74
2021/12/07 05:49:19;;;;;;;2.83;1.50;;;5.40;99.90;;;;;;4985594;28;20516;-74
2021/12/07 05:51:45;;;;;;;10.05;2.67;;;5.40;99.90;;;;;;4969274;28;20041;-74
2021/12/07 05:54:11;;;;;;;7.97;1.90;;;5.20;99.90;;;;;;4969086;28;20026;-74
2021/12/07 05:56:36;;;;;;;4.93;1.35;;;5.10;99.90;;;;;;4985447;28;20096;-74
2021/12/07 05:59:03;;;;;;;4.25;2.30;;;5.10;99.90;;;;;;4987279;28;20114;-74
2021/12/07 06:01:28;;;;;;;8.48;2.00;;;5.00;99.90;;;;;;4985271;28;20034;-74
2021/12/07 06:03:54;;;;;;;5.30;1.42;;;5.00;99.90;;;;;;4969155;28;20026;-74
2021/12/07 06:06:19;;;;;;;4.70;1.48;;;5.20;99.90;;;;;;5015788;28;20038;-73
2021/12/07 06:08:45;;;;;;;6.18;1.50;;;5.00;99.90;;;;;;5040308;28;20026;-74
2021/12/07 06:11:11;;;;;;;7.40;2.22;;;4.90;99.90;;;;;;5027293;28;20034;-74
2021/12/07 06:13:37;;;;;;;5.60;1.65;;;4.70;99.90;;;;;;5026970;28;20108;-74
2021/12/07 06:16:06;;;;;;;4.85;1.83;;;4.60;99.90;;;;;;5027049;28;20061;-74
2021/12/07 06:18:33;;;;;;;5.63;1.95;;;4.70;99.90;;;;;;5009148;28;20509;-74
2021/12/07 06:20:58;;;;;;;4.95;2.08;;;4.80;99.90;;;;;;5027335;28;20087;-74
2021/12/07 06:23:24;;;;;;;6.45;2.67;;;4.90;99.90;;;;;;5027445;28;20494;-74
2021/12/07 06:25:51;;;;;;;5.55;2.53;;;4.90;99.90;;;;;;5010821;28;20489;-73
2021/12/07 06:28:17;;;;;;;11.73;5.38;;;4.90;99.90;;;;;;5027017;28;20074;-74
2021/12/07 06:30:45;;;;;;;35.70;11.07;;;4.90;99.90;;;;;;5009157;28;20044;-73
2021/12/07 06:33:12;;;;;;;52.28;16.00;;;4.80;99.90;;;;;;5027371;28;20021;-73
2021/12/07 06:35:38;;;;;;;46.55;15.45;;;4.60;99.90;;;;;;5009042;28;20040;-73
2021/12/07 06:38:03;;;;;;;44.17;14.73;;;4.20;99.90;;;;;;5028699;28;20021;-74
2021/12/07 06:40:29;;;;;;;49.13;15.70;;;4.30;99.90;;;;;;5009628;28;20025;-74
2021/12/07 06:42:59;;;;;;;52.85;17.13;;;4.30;99.90;;;;;;5026944;28;20082;-74
2021/12/07 06:45:27;;;;;;;42.30;13.38;;;4.50;99.90;;;;;;4993221;28;20090;-74
2021/12/07 06:47:54;;;;;;;65.72;20.30;;;4.40;99.90;;;;;;5027042;28;20034;-74
2021/12/07 06:50:20;;;;;;;58.60;19.15;;;4.20;99.90;;;;;;5027913;28;20030;-74
2021/12/07 06:52:46;;;;;;;50.33;16.77;;;4.10;99.90;;;;;;5027813;28;20026;-73
2021/12/07 06:55:12;;;;;;;46.53;15.63;;;4.30;99.90;;;;;;5026667;28;20040;-74
2021/12/07 06:57:37;;;;;;;44.88;14.10;;;4.30;99.90;;;;;;5026731;28;20017;-74
2021/12/07 07:00:08;;;;;;;32.53;12.35;;;4.40;99.90;;;;;;5027255;28;20017;-74
2021/12/07 07:02:34;;;;;;;35.97;12.70;;;4.40;99.90;;;;;;5027033;28;20051;-74
2021/12/07 07:05:00;;;;;;;29.25;10.82;;;4.50;99.90;;;;;;5028566;28;20036;-74
2021/12/07 07:07:25;;;;;;;27.10;10.85;;;4.40;99.90;;;;;;5026213;28;20422;-74
2021/12/07 07:09:52;;;;;;;22.83;9.63;;;4.20;99.90;;;;;;5026860;28;20555;-74
2021/12/07 07:12:18;;;;;;;19.83;9.48;;;4.40;99.90;;;;;;5009313;28;20025;-75
2021/12/07 07:14:45;;;;;;;23.17;9.38;;;4.40;99.90;;;;;;5009085;28;20025;-74
2021/12/07 07:17:11;;;;;;;17.10;8.07;;;4.50;99.90;;;;;;5028449;28;20021;-74
2021/12/07 07:19:37;;;;;;;17.73;7.85;;;4.40;99.90;;;;;;5026304;28;20372;-74
2021/12/07 07:22:03;;;;;;;17.17;6.85;;;4.40;99.90;;;;;;5008722;28;20022;-74
2021/12/07 07:24:30;;;;;;;15.02;7.15;;;4.30;99.90;;;;;;5029696;28;20554;-74
2021/12/07 07:26:56;;;;;;;14.13;6.82;;;4.30;99.90;;;;;;5030613;28;20052;-74
2021/12/07 07:29:22;;;;;;;18.23;7.63;;;4.40;99.90;;;;;;5030598;28;20045;-74
2021/12/07 07:31:48;;;;;;;15.57;6.57;;;4.50;99.90;;;;;;5031273;28;20029;-75
2021/12/07 07:34:14;;;;;;;20.75;8.10;;;4.70;99.90;;;;;;5029650;28;20112;-75
2021/12/07 07:36:40;;;;;;;19.13;7.57;;;4.70;99.90;;;;;;5029728;28;20025;-74
2021/12/07 07:39:05;;;;;;;16.33;6.53;;;4.80;99.90;;;;;;5029806;28;20507;-74
2021/12/07 07:41:31;;;;;;;15.45;6.55;;;5.00;99.90;;;;;;5030410;28;20025;-74
2021/12/07 07:43:57;;;;;;;19.65;6.47;;;5.00;99.90;;;;;;5030901;28;20025;-74
2021/12/07 07:46:23;;;;;;;16.45;6.60;;;5.10;99.90;;;;;;5029557;28;20120;-75
2021/12/07 07:48:49;;;;;;;35.78;12.18;;;5.20;99.90;;;;;;5029385;28;20037;-74
2021/12/07 07:51:15;;;;;;;31.90;9.27;;;5.20;99.90;;;;;;5029741;28;20017;-74
2021/12/07 07:53:41;;;;;;;25.88;9.13;;;5.30;99.90;;;;;;5029915;28;20034;-74
2021/12/07 07:56:07;;;;;;;27.63;8.18;;;5.40;99.90;;;;;;5031319;28;20510;-74
2021/12/07 07:58:33;;;;;;;19.27;6.85;;;5.40;99.90;;;;;;5029546;28;20507;-74
2021/12/07 08:00:59;;;;;;;17.90;5.68;;;5.40;99.90;;;;;;5008248;28;20053;-74
2021/12/07 08:03:24;;;;;;;54.45;14.65;;;5.50;99.90;;;;;;5026278;28;20018;-74
2021/12/07 08:05:51;;;;;;;47.20;14.50;;;5.80;99.90;;;;;;5026839;28;20525;-74
2021/12/07 08:08:16;;;;;;;47.90;13.27;;;5.90;99.90;;;;;;5031139;28;20100;-74
2021/12/07 08:10:42;;;;;;;43.72;13.88;;;6.00;99.90;;;;;;5025603;28;20179;-74
2021/12/07 08:13:09;;;;;;;45.25;12.90;;;5.90;99.90;;;;;;5026583;28;20569;-74
2021/12/07 08:15:42;;;;;;;54.05;15.48;;;6.00;99.90;;;;;;5029318;28;20128;-74
2021/12/07 08:18:08;;;;;;;53.83;16.02;;;6.20;99.90;;;;;;5025445;28;20025;-74
2021/12/07 08:20:34;;;;;;;48.88;14.75;;;6.20;99.90;;;;;;5028652;28;20117;-74
2021/12/07 08:23:04;;;;;;;45.83;14.40;;;6.50;99.90;;;;;;5030209;28;20104;-74
2021/12/07 08:25:37;;;;;;;50.03;12.65;;;6.60;99.90;;;;;;5028615;28;20116;-74
2021/12/07 08:28:04;;;;;;;35.78;10.48;;;6.70;99.90;;;;;;5028599;28;20111;-74
2021/12/07 08:30:30;;;;;;;34.95;9.45;;;6.90;99.90;;;;;;5028835;28;20032;-74
2021/12/07 08:32:56;;;;;;;28.23;8.65;;;6.90;99.90;;;;;;5010669;28;20034;-74
2021/12/07 08:35:22;;;;;;;25.67;8.65;;;6.80;99.90;;;;;;5028193;28;20064;-74
2021/12/07 08:37:48;;;;;;;20.83;7.10;;;6.90;99.90;;;;;;5005869;28;20029;-74
2021/12/07 08:40:19;;;;;;;18.30;7.53;;;7.10;99.90;;;;;;5027158;28;20491;-75
2021/12/07 08:42:45;;;;;;;18.00;7.00;;;7.40;99.90;;;;;;5027817;28;20120;-74
2021/12/07 08:45:11;;;;;;;20.90;6.00;;;7.60;99.90;;;;;;5027369;28;20533;-74
2021/12/07 08:47:37;;;;;;;15.93;6.28;;;7.70;99.90;;;;;;5009686;28;20030;-74
2021/12/07 08:50:05;;;;;;;18.25;5.72;;;7.80;99.90;;;;;;5029111;28;20028;-74
2021/12/07 08:52:31;;;;;;;14.30;5.13;;;7.60;99.90;;;;;;5027220;28;20025;-74
2021/12/07 09:00:32;;;;;;;11.77;4.38;;;7.10;99.90;;;;;;5027125;28;20088;-74
2021/12/07 09:02:58;;;;;;;11.15;4.25;;;7.00;99.90;;;;;;5009452;28;20033;-74
2021/12/07 09:05:24;;;;;;;11.10;4.05;;;7.00;99.90;;;;;;5027399;28;20127;-75
2021/12/07 09:07:50;;;;;;;8.75;4.47;;;7.00;99.90;;;;;;5010122;28;20021;-74
2021/12/07 09:10:17;;;;;;;7.03;3.63;;;6.90;99.90;;;;;;5027736;28;20037;-74
2021/12/07 09:12:43;;;;;;;13.07;3.85;;;6.90;99.90;;;;;;5027455;28;20022;-74
2021/12/07 09:15:10;;;;;;;7.88;3.60;;;6.90;99.90;;;;;;5027248;28;22753;-75
2021/12/07 09:17:35;;;;;;;8.15;3.60;;;7.00;99.90;;;;;;5027144;28;20021;-75
2021/12/07 09:20:10;;;;;;;12.18;3.22;;;7.00;99.90;;;;;;5028852;28;20172;-74
2021/12/07 09:22:36;;;;;;;8.30;3.55;;;7.10;99.90;;;;;;5027230;28;20068;-74
2021/12/07 09:25:02;;;;;;;10.25;3.50;;;7.10;99.90;;;;;;5027930;28;20349;-74
2021/12/07 09:27:28;;;;;;;9.15;3.17;;;7.10;99.90;;;;;;5027595;28;20017;-74
2021/12/07 09:29:54;;;;;;;11.07;2.65;;;7.20;99.90;;;;;;5027097;28;20357;-75
2021/12/07 09:32:20;;;;;;;7.70;3.28;;;7.30;99.90;;;;;;5028066;28;20017;-74
2021/12/07 09:34:46;;;;;;;7.35;3.45;;;7.30;99.90;;;;;;5027853;28;20052;-74
2021/12/07 09:37:11;;;;;;;12.50;3.42;;;7.30;99.90;;;;;;5026803;28;20475;-74
2021/12/07 09:39:37;;;;;;;6.10;3.33;;;7.30;99.90;;;;;;5027022;28;20035;-74
2021/12/07 09:42:03;;;;;;;9.25;2.70;;;7.40;99.90;;;;;;5027178;28;20159;-74
2021/12/07 09:44:29;;;;;;;9.38;2.95;;;7.40;99.90;;;;;;5027264;28;20045;-74
2021/12/07 09:46:55;;;;;;;12.57;4.18;;;7.40;99.90;;;;;;5027461;28;20116;-74
2021/12/07 09:49:21;;;;;;;6.20;2.42;;;7.40;99.90;;;;;;5026966;28;20043;-74
2021/12/07 09:51:46;;;;;;;7.13;2.70;;;7.50;99.90;;;;;;5027077;28;20431;-74
2021/12/07 09:54:12;;;;;;;11.07;2.30;;;7.50;99.90;;;;;;5009128;28;20560;-74
2021/12/07 09:56:38;;;;;;;7.93;2.88;;;7.50;99.90;;;;;;5027123;28;20025;-74
2021/12/07 09:59:07;;;;;;;12.90;2.78;;;7.50;99.90;;;;;;5010575;28;20494;-74
2021/12/07 10:01:32;;;;;;;7.57;2.58;;;7.60;99.90;;;;;;5026637;28;20052;-74
2021/12/07 10:03:58;;;;;;;7.18;2.05;;;7.60;99.90;;;;;;5026812;28;20484;-74
2021/12/07 10:06:25;;;;;;;6.20;2.00;;;7.60;99.90;;;;;;5026445;28;20032;-74
2021/12/07 10:08:50;;;;;;;10.13;2.65;;;7.60;99.90;;;;;;5026645;28;20083;-74
2021/12/07 10:11:17;;;;;;;9.52;2.97;;;7.70;99.90;;;;;;5028467;28;20029;-74
2021/12/07 10:13:46;;;;;;;9.25;3.03;;;7.70;99.90;;;;;;5026913;28;20038;-74
2021/12/07 10:16:15;;;;;;;6.15;2.40;;;7.70;99.90;;;;;;5026271;28;20037;-74
2021/12/07 10:18:42;;;;;;;6.40;2.58;;;7.70;99.90;;;;;;5026782;28;20450;-74
2021/12/07 10:21:30;;;;;;;8.30;2.28;;;7.70;99.90;;;;;;5026504;28;20029;-74
2021/12/07 10:24:02;;;;;;;9.52;2.88;;;7.80;99.90;;;;;;5027140;28;20421;-74
2021/12/07 10:26:29;;;;;;;;;;;7.90;99.90;;;;;;5009652;28;20041;-74
2021/12/07 10:28:58;;;;;;;13.43;3.28;;;8.00;99.90;;;;;;5027918;28;19912;-74
2021/12/07 10:31:34;;;;;;;14.90;2.80;;;8.10;99.90;;;;;;5026309;28;20037;-74
2021/12/07 10:34:02;;;;;;;15.10;3.67;;;8.20;99.90;;;;;;5026291;28;20064;-74
2021/12/07 10:36:33;;;;;;;16.55;3.90;;;8.30;99.90;;;;;;5026037;28;20018;-74
2021/12/07 10:39:04;;;;;;;11.97;2.93;;;8.40;99.90;;;;;;5008596;28;20131;-74
2021/12/07 10:41:43;;;;;;;12.85;3.75;;;8.50;99.90;;;;;;5026781;28;20495;-74
2021/12/07 10:44:11;;;;;;;15.10;3.47;;;8.70;99.90;;;;;;5027798;28;20038;-74
2021/12/07 10:46:42;;;;;;;9.88;3.15;;;9.00;99.90;;;;;;5008802;28;20029;-74
2021/12/07 10:49:14;;;;;;;;;;;9.20;99.90;;;;;;5026932;28;20495;-74
2021/12/07 10:51:42;;;;;;;15.25;3.55;;;9.30;99.90;;;;;;5026448;28;20202;-74
2021/12/07 10:54:08;;;;;;;14.68;3.55;;;9.50;99.90;;;;;;5026544;28;20029;-74
2021/12/07 10:56:38;;;;;;;10.45;2.70;;;9.50;99.90;;;;;;5026346;28;20041;-74
2021/12/07 10:59:07;;;;;;;12.73;2.97;;;9.60;99.90;;;;;;5030281;28;20585;-74
2021/12/07 11:01:53;;;;;;;11.07;2.92;;;9.70;99.90;;;;;;5030231;28;20056;-74
2021/12/07 11:04:24;;;;;;;12.45;3.60;;;9.90;99.90;;;;;;5030492;28;20033;-74
2021/12/07 11:07:03;;;;;;;11.90;3.53;;;9.90;99.90;;;;;;5026763;28;20065;-74
2021/12/07 11:09:29;;;;;;;7.35;2.97;;;9.90;99.90;;;;;;5030414;28;20597;-74
2021/12/07 11:12:08;;;;;;;10.15;2.67;;;9.90;99.90;;;;;;5031163;28;20125;-75
2021/12/07 11:14:51;;;;;;;13.73;2.78;;;9.70;99.90;;;;;;5030459;28;20108;-75
2021/12/07 11:17:29;;;;;;;11.07;2.83;;;9.60;99.90;;;;;;5032061;28;20052;-74
2021/12/07 11:19:55;;;;;;;13.02;2.55;;;9.50;99.90;;;;;;5025191;28;20021;-74
2021/12/07 11:22:24;;;;;;;12.10;3.90;;;9.50;99.90;;;;;;5030552;28;20029;-74
2021/12/07 11:24:52;;;;;;;9.80;2.42;;;9.50;99.90;;;;;;5026637;28;20033;-74
2021/12/07 11:30:12;;;;;;;7.72;2.47;;;9.50;99.90;;;;;;5015219;28;20028;-74
2021/12/07 11:32:43;;;;;;;13.43;2.78;;;9.50;99.90;;;;;;5026141;28;20057;-74
2021/12/07 11:35:19;;;;;;;10.55;2.33;;;9.50;99.90;;;;;;5031859;28;20021;-74
2021/12/07 11:37:46;;;;;;;10.45;2.90;;;9.40;99.90;;;;;;5029874;28;20034;-74
2021/12/07 11:40:14;;;;;;;10.25;2.30;;;9.30;99.90;;;;;;5010116;28;20034;-74
2021/12/07 11:42:42;;;;;;;6.80;1.85;;;9.20;99.90;;;;;;5028363;28;20029;-74
2021/12/07 11:45:16;;;;;;;8.90;2.58;;;9.20;99.90;;;;;;5016605;28;20080;-74
2021/12/07 11:47:48;;;;;;;9.35;2.30;;;9.20;99.90;;;;;;5030137;28;20034;-74
2021/12/07 11:50:32;;;;;;;10.52;3.35;;;9.20;99.90;;;;;;5031568;28;20025;-74
2021/12/07 11:52:59;;;;;;;8.40;2.47;;;9.10;99.90;;;;;;5031498;28;20036;-74
2021/12/07 11:55:26;;;;;;;9.63;2.28;;;9.10;99.90;;;;;;5029305;28;20039;-73
2021/12/07 11:57:52;;;;;;;7.97;2.33;;;9.10;99.90;;;;;;5008778;28;20559;-74
2021/12/07 12:00:27;;;;;;;6.93;2.10;;;9.10;99.90;;;;;;5029170;28;20072;-74
2021/12/07 12:02:53;;;;;;;8.98;2.08;;;9.10;99.90;;;;;;5011662;28;20029;-74
2021/12/07 12:05:19;;;;;;;8.77;2.42;;;9.10;99.90;;;;;;5030523;28;20036;-74
2021/12/07 12:07:47;;;;;;;10.73;3.25;;;9.10;99.90;;;;;;5026133;28;21131;-74
2021/12/07 12:10:14;;;;;;;8.68;2.78;;;9.10;99.90;;;;;;5020715;28;20065;-73
2021/12/07 12:13:17;;;;;;;6.38;2.28;;;9.10;99.90;;;;;;5002848;28;20025;-74
2021/12/07 12:16:16;;;;;;;11.15;3.10;;;9.20;99.90;;;;;;5029781;28;20123;-74
2021/12/07 12:18:55;;;;;;;9.70;2.38;;;9.20;99.90;;;;;;5011264;28;20057;-74
2021/12/07 12:21:31;;;;;;;8.23;3.13;;;9.20;99.90;;;;;;5011734;28;20503;-74
2021/12/07 12:24:08;;;;;;;7.78;2.67;;;9.30;99.90;;;;;;5028743;28;20339;-74
2021/12/07 12:26:34;;;;;;;10.15;2.10;;;9.20;99.90;;;;;;5028404;28;20029;-74
2021/12/07 12:29:01;;;;;;;7.72;2.47;;;9.20;99.90;;;;;;5025392;28;20053;-74
2021/12/07 12:31:42;;;;;;;10.43;3.05;;;9.20;99.90;;;;;;5027859;28;20040;-74
2021/12/07 12:34:35;;;;;;;8.23;2.15;;;9.20;99.90;;;;;;5028433;28;20229;-74
2021/12/07 12:37:22;;;;;;;8.77;3.13;;;9.20;99.90;;;;;;4969326;28;20066;-74
2021/12/07 12:40:08;;;;;;;6.93;2.45;;;9.20;99.90;;;;;;4986147;28;20031;-74
2021/12/07 12:42:39;;;;;;;9.27;2.30;;;9.20;99.90;;;;;;4968256;28;20109;-74
2021/12/07 12:45:23;;;;;;;11.55;3.38;;;9.20;99.90;;;;;;4986058;28;20050;-74
2021/12/07 12:47:59;;;;;;;12.07;3.60;;;9.10;99.90;;;;;;4971081;28;20054;-74
2021/12/07 12:50:31;;;;;;;17.70;8.95;;;9.10;99.90;;;;;;4987780;28;20089;-74
2021/12/07 12:53:01;;;;;;;19.15;7.35;;;9.10;99.90;;;;;;4988085;28;20033;-74
2021/12/07 12:55:28;;;;;;;14.43;6.35;;;9.10;99.90;;;;;;4982423;28;20089;-74
2021/12/07 12:57:54;;;;;;;12.25;5.15;;;9.10;99.90;;;;;;4985959;28;20058;-74
2021/12/07 13:00:22;;;;;;;14.63;5.28;;;9.10;99.90;;;;;;4966485;28;20077;-74
2021/12/07 13:02:53;;;;;;;10.82;4.47;;;9.10;99.90;;;;;;4969386;28;20018;-74
2021/12/07 13:05:33;;;;;;;12.38;5.18;;;9.10;99.90;;;;;;4983145;28;20031;-74
2021/12/07 13:08:16;;;;;;;7.20;3.72;;;9.00;99.90;;;;;;4969881;28;20023;-74
2021/12/07 13:11:00;;;;;;;10.85;3.45;;;9.00;99.90;;;;;;4984986;28;20081;-73
2021/12/07 13:13:31;;;;;;;12.93;3.50;;;8.90;99.90;;;;;;5000287;28;20034;-74
2021/12/07 13:15:57;;;;;;;9.68;4.32;;;8.90;99.90;;;;;;5027221;28;20105;-74
2021/12/07 13:18:31;;;;;;;9.55;2.85;;;8.90;99.90;;;;;;5026901;28;20034;-73
2021/12/07 13:20:57;;;;;;;9.27;4.35;;;8.90;99.90;;;;;;5026916;28;20021;-73
2021/12/07 13:23:31;;;;;;;12.40;4.93;;;8.90;99.90;;;;;;5022144;28;20093;-73
2021/12/07 13:25:57;;;;;;;9.93;4.03;;;8.90;99.90;;;;;;5010065;28;20240;-73
2021/12/07 13:28:26;;;;;;;11.05;4.13;;;8.80;99.90;;;;;;5026751;28;20035;-73
2021/12/07 13:30:55;;;;;;;13.02;3.15;;;8.80;99.90;;;;;;5007910;28;20116;-73
2021/12/07 13:33:38;;;;;;;7.78;2.90;;;8.80;99.90;;;;;;5025790;28;20052;-73
2021/12/07 13:36:42;;;;;;;9.82;3.55;;;8.70;99.90;;;;;;5008508;28;20112;-73
2021/12/07 13:39:10;;;;;;;9.45;3.55;;;8.60;99.90;;;;;;4984544;28;20026;-73
2021/12/07 13:41:52;;;;;;;11.57;3.38;;;8.70;99.90;;;;;;4984129;28;20050;-73
2021/12/07 13:44:18;;;;;;;9.05;3.53;;;8.70;99.90;;;;;;4986074;28;20077;-73
2021/12/07 13:46:43;;;;;;;9.25;3.40;;;8.70;99.90;;;;;;4983850;28;20043;-73
2021/12/07 13:49:13;;;;;;;7.95;2.63;;;8.70;99.90;;;;;;4984705;28;20034;-74
2021/12/07 13:51:39;;;;;;;8.98;3.17;;;8.60;99.90;;;;;;4984189;28;20089;-73
2021/12/07 13:54:06;;;;;;;10.77;3.85;;;8.60;99.90;;;;;;4967098;28;20038;-74
2021/12/07 13:56:37;;;;;;;13.07;3.35;;;8.60;99.90;;;;;;4984657;28;20136;-73
2021/12/07 13:59:12;;;;;;;5.95;3.22;;;8.60;99.90;;;;;;4986392;28;20019;-73
2021/12/07 14:01:40;;;;;;;13.18;3.25;;;8.60;99.90;;;;;;4984423;28;20033;-74
2021/12/07 14:04:07;;;;;;;6.93;3.30;;;8.60;99.90;;;;;;4968461;28;20411;-74
2021/12/07 14:06:34;;;;;;;6.90;2.50;;;8.60;99.90;;;;;;4984228;28;20077;-73
2021/12/07 14:09:11;;;;;;;8.32;2.40;;;8.70;99.90;;;;;;4973990;28;20077;-73
2021/12/07 14:11:38;;;;;;;10.85;2.90;;;8.70;99.90;;;;;;4983583;28;20105;-73
2021/12/07 14:14:15;;;;;;;6.40;2.33;;;8.70;99.90;;;;;;5023378;28;20177;-74
2021/12/07 14:16:43;;;;;;;6.88;2.42;;;8.60;99.90;;;;;;5025152;28;20058;-73
2021/12/07 14:19:09;;;;;;;16.35;3.47;;;8.50;99.90;;;;;;5026216;28;20099;-73
2021/12/07 14:21:35;;;;;;;10.98;2.95;;;8.50;99.90;;;;;;5025985;28;20025;-73
2021/12/07 14:24:07;;;;;;;7.88;2.55;;;8.40;99.90;;;;;;5008187;28;20517;-73
2021/12/07 14:26:38;;;;;;;8.70;2.85;;;8.50;99.90;;;;;;5026266;28;20029;-73
2021/12/07 14:29:15;;;;;;;8.93;2.63;;;8.40;99.90;;;;;;5027838;28;20021;-73
2021/12/07 14:31:44;;;;;;;9.55;3.78;;;8.30;99.90;;;;;;5026781;28;20040;-75
2021/12/07 14:34:16;;;;;;;8.77;3.08;;;8.40;99.90;;;;;;5029355;28;20033;-73
2021/12/07 14:36:48;;;;;;;9.68;3.17;;;8.20;99.90;;;;;;5029454;28;20037;-73
2021/12/07 14:39:15;;;;;;;;;;;8.30;99.90;;;;;;5011679;28;20063;-73
2021/12/07 14:41:44;;;;;;;6.88;3.00;;;8.30;99.90;;;;;;5030446;28;19927;-74
2021/12/07 14:44:14;;;;;;;11.55;3.78;;;8.30;99.90;;;;;;5031404;28;20025;-73